Wilson Maas — 8PSZ — position and weather

sailwx.info

Track history (hours):
 
Tides and Currents Weather Stations Pressure Air Temp Water Temp Dewpoint Dewpoint Depression Visibility Wind Speed Wind Dir Waves Ship Positions

Wilson Maas

Last reported at 2016-May-01 11:33 UTC. Time now 2016-May-03 08:42 UTC.
Position N 56°02' W 003°14'.

Length 78 m; draft 4.1 m.

Type: Cargo ship. MMSI: 314217000.

Date/timePositionNaut miles runAvg speedWind from/ knotsBaromVisibWave heightAir tempDewpointWater temp
2016-May-01 11:33N 56°02' W 003°14'9 8.5
2016-May-01 10:33N 56°04' W 002°59'9 9.0
2016-May-01 09:33N 56°07' W 002°44'8 8.5
2016-May-01 08:33N 56°07' W 002°29'8 8.1
2016-May-01 07:33N 56°04' W 002°15'8 8.0
2016-May-01 06:34N 56°02' W 002°02'9 8.6
2016-May-01 05:31N 55°59' W 001°46'322 8.5
2016-Apr-29 15:25N 54°17' E 007°08'7 8.1
2016-Apr-29 14:33N 54°15' E 007°20'8 7.6
2016-Apr-29 13:33N 54°10' E 007°30'9 8.6
2016-Apr-29 12:33N 54°03' E 007°37'7 6.9
2016-Apr-29 11:33N 53°56' E 007°42'7 7.3
2016-Apr-29 10:33N 53°52' E 007°53'9 9.1
2016-Apr-29 09:32N 53°49' E 008°07'1211.9
2016-Apr-29 08:33N 53°41' E 008°22'1211.8
2016-Apr-29 07:33N 53°31' E 008°33'1212.3
2016-Apr-29 06:33N 53°19' E 008°29'10 9.6
2016-Apr-29 05:34N 53°10' E 008°36'7 7.0
2016-Apr-29 04:33N 53°06' E 008°46'0 0.4
2016-Apr-29 03:31N 53°06' E 008°46'0 0.0
2016-Apr-29 02:31N 53°06' E 008°46'0 0.0
2016-Apr-29 01:31N 53°06' E 008°46'0 0.0
2016-Apr-29 00:31N 53°06' E 008°46'0 0.0
2016-Apr-28 23:31N 53°06' E 008°46'0 0.0
2016-Apr-28 22:31N 53°06' E 008°46'0 0.0
2016-Apr-28 21:31N 53°06' E 008°46'0 0.0
2016-Apr-28 20:31N 53°06' E 008°46'0 0.0
2016-Apr-28 19:31N 53°06' E 008°46'0 0.0
2016-Apr-28 18:31N 53°06' E 008°46'0 0.0
2016-Apr-28 17:31N 53°06' E 008°46'0 0.0
2016-Apr-28 16:31N 53°06' E 008°46'0 0.0
2016-Apr-28 15:31N 53°06' E 008°46'0 0.0
2016-Apr-28 14:31N 53°06' E 008°46'0 0.0
2016-Apr-28 13:31N 53°06' E 008°46'0 0.0
2016-Apr-28 12:31N 53°06' E 008°46'0 0.0
2016-Apr-28 11:31N 53°06' E 008°46'0 0.0
2016-Apr-28 10:31N 53°06' E 008°46'0 0.0
2016-Apr-28 09:31N 53°06' E 008°46'0 0.0
2016-Apr-28 08:31N 53°06' E 008°46'0 0.0
2016-Apr-28 07:31N 53°06' E 008°46'0 0.0
2016-Apr-28 06:31N 53°06' E 008°46'0 0.0
2016-Apr-28 05:31N 53°06' E 008°46'0 0.0
2016-Apr-28 04:31N 53°06' E 008°46'0 0.0
2016-Apr-28 03:34N 53°06' E 008°46'4 4.4
2016-Apr-28 02:33N 53°08' E 008°39'1110.6
2016-Apr-28 01:33N 53°16' E 008°29'1312.6
2016-Apr-28 00:33N 53°29' E 008°30'1110.6
2016-Apr-27 23:33N 53°39' E 008°24'1313.3
2016-Apr-27 22:33N 53°48' E 008°08'1212.0
2016-Apr-27 21:33N 53°52' E 007°49'1110.6
2016-Apr-27 20:33N 53°60' E 007°36'1110.6
2016-Apr-27 19:33N 54°09' E 007°27'1110.7
2016-Apr-27 18:33N 54°20' E 007°26'1110.5
2016-Apr-27 17:33N 54°30' E 007°25'1010.5
2016-Apr-27 16:33N 54°41' E 007°25'1510.6
2016-Apr-27 15:09N 54°56' E 007°25'610.5
2016-Apr-27 14:33N 55°02' E 007°25'9 8.9
2016-Apr-27 13:34N 55°11' E 007°25'8 7.6
2016-Apr-27 12:34N 55°18' E 007°25'1010.4
2016-Apr-27 11:33N 55°29' E 007°23'3411.3
2016-Apr-27 08:33N 56°02' E 007°31'18310.8
2016-Apr-26 15:33N 58°41' E 010°18'1111.4
2016-Apr-26 14:33N 58°51' E 010°31'1111.2
2016-Apr-26 13:33N 59°00' E 010°42'9 9.0
2016-Apr-26 12:33N 59°04' E 010°58'7 7.0
2016-Apr-26 11:31N 59°11' E 010°57'0 0.0
2016-Apr-26 10:31N 59°11' E 010°57'0 0.0
2016-Apr-26 09:28N 59°11' E 010°57'0 0.0
2016-Apr-26 08:31N 59°11' E 010°57'0 0.0
2016-Apr-26 07:19N 59°11' E 010°57'0 0.0
2016-Apr-26 06:31N 59°11' E 010°57'0 0.0
2016-Apr-26 05:25N 59°11' E 010°57'0 0.0
2016-Apr-26 04:25N 59°11' E 010°57'0 0.0
2016-Apr-26 03:31N 59°11' E 010°57'0 0.0
2016-Apr-26 02:28N 59°11' E 010°57'0 0.0
2016-Apr-26 01:31N 59°11' E 010°57'0 0.0
2016-Apr-26 00:31N 59°11' E 010°57'0 0.0
2016-Apr-25 23:31N 59°11' E 010°57'0 0.0
2016-Apr-25 22:31N 59°11' E 010°57'0 0.0
2016-Apr-25 21:31N 59°11' E 010°57'0 0.0
2016-Apr-25 20:31N 59°11' E 010°57'0 0.0
2016-Apr-25 19:31N 59°11' E 010°57'0 0.0
2016-Apr-25 18:28N 59°11' E 010°57'0 0.0
2016-Apr-25 17:28N 59°11' E 010°57'0 0.1
2016-Apr-25 16:31N 59°11' E 010°57'3 3.3
2016-Apr-25 15:33N 59°08' E 010°54'9 9.0
2016-Apr-25 14:33N 59°15' E 010°43'1010.0
2016-Apr-25 13:33N 59°23' E 010°33'2 2.0
2016-Apr-25 12:32N 59°25' E 010°30'0 0.0
2016-Apr-25 11:32N 59°25' E 010°30'0 0.0
2016-Apr-25 10:32N 59°25' E 010°30'0 0.0
2016-Apr-25 09:32N 59°25' E 010°30'0 0.0
2016-Apr-25 08:32N 59°25' E 010°30'0 0.0
2016-Apr-25 07:32N 59°25' E 010°30'0 0.0
2016-Apr-25 06:32N 59°25' E 010°30'0 0.0
2016-Apr-25 05:32N 59°25' E 010°30'0 0.0
2016-Apr-25 04:32N 59°25' E 010°30'0 0.0
2016-Apr-25 03:32N 59°25' E 010°30'0 0.0
2016-Apr-25 02:32N 59°25' E 010°30'0 0.0
2016-Apr-25 01:32N 59°25' E 010°30'0 0.0
2016-Apr-25 00:32N 59°25' E 010°30'0 0.0
2016-Apr-24 23:33N 59°25' E 010°30'7 6.6
2016-Apr-24 22:33N 59°19' E 010°33'10 9.8
2016-Apr-24 21:33N 59°09' E 010°37'10 9.6
2016-Apr-24 20:33N 58°59' E 010°33'10 9.8
2016-Apr-24 19:33N 58°52' E 010°22'10 9.5
2016-Apr-24 18:33N 58°44' E 010°11'1010.3
2016-Apr-24 17:34N 58°35' E 010°00'308 9.0
2016-Apr-23 07:30N 54°11' E 005°14'8 8.7
2016-Apr-23 06:33N 54°04' E 005°08'18 9.0
2016-Apr-23 04:30N 53°47' E 004°56'95 8.6
2016-Apr-22 17:26N 52°20' E 003°52'910.5
2016-Apr-22 16:33N 52°11' E 003°54'1010.3
2016-Apr-22 15:33N 52°01' E 003°59'9 8.9
2016-Apr-22 14:34N 51°57' E 004°11'8 7.8
2016-Apr-22 13:33N 51°54' E 004°23'3 3.0
2016-Apr-22 12:34N 51°54' E 004°28'0 0.0
2016-Apr-22 11:34N 51°54' E 004°28'0 0.0
2016-Apr-22 10:33N 51°54' E 004°28'0 0.0
2016-Apr-22 09:34N 51°54' E 004°28'1 1.4
2016-Apr-22 08:33N 51°54' E 004°26'1 0.7
2016-Apr-22 07:28N 51°55' E 004°25'0 0.0
2016-Apr-22 06:34N 51°55' E 004°25'0 0.0
2016-Apr-22 05:31N 51°55' E 004°25'2 2.3
2016-Apr-22 04:33N 51°54' E 004°28'0 0.1
2016-Apr-22 03:32N 51°54' E 004°28'0 0.0
2016-Apr-22 02:32N 51°54' E 004°28'0 0.0
2016-Apr-22 01:32N 51°54' E 004°28'0 0.0
2016-Apr-22 00:32N 51°54' E 004°28'0 0.0
2016-Apr-21 23:32N 51°54' E 004°28'0 0.0
2016-Apr-21 22:32N 51°54' E 004°28'0 0.0
2016-Apr-21 21:32N 51°54' E 004°28'0 0.0
2016-Apr-21 20:32N 51°54' E 004°28'0 0.0
2016-Apr-21 19:32N 51°54' E 004°28'2 2.4
2016-Apr-21 18:33N 51°54' E 004°32'13 9.3
2016-Apr-21 17:08N 51°49' E 004°51'  
Track history (hours):
 
Tides and Currents Weather Stations Pressure Air Temp Water Temp Dewpoint Dewpoint Depression Visibility Wind Speed Wind Dir Waves Ship Positions

Wilson Maas

Last reported at 2016-May-01 11:33 UTC. Time now 2016-May-03 08:42 UTC.
Position N 56°02' W 003°14'.

Length 78 m; draft 4.1 m.

Type: Cargo ship. MMSI: 314217000.

Date/timePositionNaut miles runAvg speedWind from/ knotsBaromVisibWave heightAir tempDewpointWater temp
2016-May-01 11:33N 56°02' W 003°14'9 8.5
2016-May-01 10:33N 56°04' W 002°59'9 9.0
2016-May-01 09:33N 56°07' W 002°44'8 8.5
2016-May-01 08:33N 56°07' W 002°29'8 8.1
2016-May-01 07:33N 56°04' W 002°15'8 8.0
2016-May-01 06:34N 56°02' W 002°02'9 8.6
2016-May-01 05:31N 55°59' W 001°46'322 8.5
2016-Apr-29 15:25N 54°17' E 007°08'7 8.1
2016-Apr-29 14:33N 54°15' E 007°20'8 7.6
2016-Apr-29 13:33N 54°10' E 007°30'9 8.6
2016-Apr-29 12:33N 54°03' E 007°37'7 6.9
2016-Apr-29 11:33N 53°56' E 007°42'7 7.3
2016-Apr-29 10:33N 53°52' E 007°53'9 9.1
2016-Apr-29 09:32N 53°49' E 008°07'1211.9
2016-Apr-29 08:33N 53°41' E 008°22'1211.8
2016-Apr-29 07:33N 53°31' E 008°33'1212.3
2016-Apr-29 06:33N 53°19' E 008°29'10 9.6
2016-Apr-29 05:34N 53°10' E 008°36'7 7.0
2016-Apr-29 04:33N 53°06' E 008°46'0 0.4
2016-Apr-29 03:31N 53°06' E 008°46'0 0.0
2016-Apr-29 02:31N 53°06' E 008°46'0 0.0
2016-Apr-29 01:31N 53°06' E 008°46'0 0.0
2016-Apr-29 00:31N 53°06' E 008°46'0 0.0
2016-Apr-28 23:31N 53°06' E 008°46'0 0.0
2016-Apr-28 22:31N 53°06' E 008°46'0 0.0
2016-Apr-28 21:31N 53°06' E 008°46'0 0.0
2016-Apr-28 20:31N 53°06' E 008°46'0 0.0
2016-Apr-28 19:31N 53°06' E 008°46'0 0.0
2016-Apr-28 18:31N 53°06' E 008°46'0 0.0
2016-Apr-28 17:31N 53°06' E 008°46'0 0.0
2016-Apr-28 16:31N 53°06' E 008°46'0 0.0
2016-Apr-28 15:31N 53°06' E 008°46'0 0.0
2016-Apr-28 14:31N 53°06' E 008°46'0 0.0
2016-Apr-28 13:31N 53°06' E 008°46'0 0.0
2016-Apr-28 12:31N 53°06' E 008°46'0 0.0
2016-Apr-28 11:31N 53°06' E 008°46'0 0.0
2016-Apr-28 10:31N 53°06' E 008°46'0 0.0
2016-Apr-28 09:31N 53°06' E 008°46'0 0.0
2016-Apr-28 08:31N 53°06' E 008°46'0 0.0
2016-Apr-28 07:31N 53°06' E 008°46'0 0.0
2016-Apr-28 06:31N 53°06' E 008°46'0 0.0
2016-Apr-28 05:31N 53°06' E 008°46'0 0.0
2016-Apr-28 04:31N 53°06' E 008°46'0 0.0
2016-Apr-28 03:34N 53°06' E 008°46'4 4.4
2016-Apr-28 02:33N 53°08' E 008°39'1110.6
2016-Apr-28 01:33N 53°16' E 008°29'1312.6
2016-Apr-28 00:33N 53°29' E 008°30'1110.6
2016-Apr-27 23:33N 53°39' E 008°24'1313.3
2016-Apr-27 22:33N 53°48' E 008°08'1212.0
2016-Apr-27 21:33N 53°52' E 007°49'1110.6
2016-Apr-27 20:33N 53°60' E 007°36'1110.6
2016-Apr-27 19:33N 54°09' E 007°27'1110.7
2016-Apr-27 18:33N 54°20' E 007°26'1110.5
2016-Apr-27 17:33N 54°30' E 007°25'1010.5
2016-Apr-27 16:33N 54°41' E 007°25'1510.6
2016-Apr-27 15:09N 54°56' E 007°25'610.5
2016-Apr-27 14:33N 55°02' E 007°25'9 8.9
2016-Apr-27 13:34N 55°11' E 007°25'8 7.6
2016-Apr-27 12:34N 55°18' E 007°25'1010.4
2016-Apr-27 11:33N 55°29' E 007°23'3411.3
2016-Apr-27 08:33N 56°02' E 007°31'18310.8
2016-Apr-26 15:33N 58°41' E 010°18'1111.4
2016-Apr-26 14:33N 58°51' E 010°31'1111.2
2016-Apr-26 13:33N 59°00' E 010°42'9 9.0
2016-Apr-26 12:33N 59°04' E 010°58'7 7.0
2016-Apr-26 11:31N 59°11' E 010°57'0 0.0
2016-Apr-26 10:31N 59°11' E 010°57'0 0.0
2016-Apr-26 09:28N 59°11' E 010°57'0 0.0
2016-Apr-26 08:31N 59°11' E 010°57'0 0.0
2016-Apr-26 07:19N 59°11' E 010°57'0 0.0
2016-Apr-26 06:31N 59°11' E 010°57'0 0.0
2016-Apr-26 05:25N 59°11' E 010°57'0 0.0
2016-Apr-26 04:25N 59°11' E 010°57'0 0.0
2016-Apr-26 03:31N 59°11' E 010°57'0 0.0
2016-Apr-26 02:28N 59°11' E 010°57'0 0.0
2016-Apr-26 01:31N 59°11' E 010°57'0 0.0
2016-Apr-26 00:31N 59°11' E 010°57'0 0.0
2016-Apr-25 23:31N 59°11' E 010°57'0 0.0
2016-Apr-25 22:31N 59°11' E 010°57'0 0.0
2016-Apr-25 21:31N 59°11' E 010°57'0 0.0
2016-Apr-25 20:31N 59°11' E 010°57'0 0.0
2016-Apr-25 19:31N 59°11' E 010°57'0 0.0
2016-Apr-25 18:28N 59°11' E 010°57'0 0.0
2016-Apr-25 17:28N 59°11' E 010°57'0 0.1
2016-Apr-25 16:31N 59°11' E 010°57'3 3.3
2016-Apr-25 15:33N 59°08' E 010°54'9 9.0
2016-Apr-25 14:33N 59°15' E 010°43'1010.0
2016-Apr-25 13:33N 59°23' E 010°33'2 2.0
2016-Apr-25 12:32N 59°25' E 010°30'0 0.0
2016-Apr-25 11:32N 59°25' E 010°30'0 0.0
2016-Apr-25 10:32N 59°25' E 010°30'0 0.0
2016-Apr-25 09:32N 59°25' E 010°30'0 0.0
2016-Apr-25 08:32N 59°25' E 010°30'0 0.0
2016-Apr-25 07:32N 59°25' E 010°30'0 0.0
2016-Apr-25 06:32N 59°25' E 010°30'0 0.0
2016-Apr-25 05:32N 59°25' E 010°30'0 0.0
2016-Apr-25 04:32N 59°25' E 010°30'0 0.0
2016-Apr-25 03:32N 59°25' E 010°30'0 0.0
2016-Apr-25 02:32N 59°25' E 010°30'0 0.0
2016-Apr-25 01:32N 59°25' E 010°30'0 0.0
2016-Apr-25 00:32N 59°25' E 010°30'0 0.0
2016-Apr-24 23:33N 59°25' E 010°30'7 6.6
2016-Apr-24 22:33N 59°19' E 010°33'10 9.8
2016-Apr-24 21:33N 59°09' E 010°37'10 9.6
2016-Apr-24 20:33N 58°59' E 010°33'10 9.8
2016-Apr-24 19:33N 58°52' E 010°22'10 9.5
2016-Apr-24 18:33N 58°44' E 010°11'1010.3
2016-Apr-24 17:34N 58°35' E 010°00'308 9.0
2016-Apr-23 07:30N 54°11' E 005°14'8 8.7
2016-Apr-23 06:33N 54°04' E 005°08'18 9.0
2016-Apr-23 04:30N 53°47' E 004°56'95 8.6
2016-Apr-22 17:26N 52°20' E 003°52'910.5
2016-Apr-22 16:33N 52°11' E 003°54'1010.3
2016-Apr-22 15:33N 52°01' E 003°59'9 8.9
2016-Apr-22 14:34N 51°57' E 004°11'8 7.8
2016-Apr-22 13:33N 51°54' E 004°23'3 3.0
2016-Apr-22 12:34N 51°54' E 004°28'0 0.0
2016-Apr-22 11:34N 51°54' E 004°28'0 0.0
2016-Apr-22 10:33N 51°54' E 004°28'0 0.0
2016-Apr-22 09:34N 51°54' E 004°28'1 1.4
2016-Apr-22 08:33N 51°54' E 004°26'1 0.7
2016-Apr-22 07:28N 51°55' E 004°25'0 0.0
2016-Apr-22 06:34N 51°55' E 004°25'0 0.0
2016-Apr-22 05:31N 51°55' E 004°25'2 2.3
2016-Apr-22 04:33N 51°54' E 004°28'0 0.1
2016-Apr-22 03:32N 51°54' E 004°28'0 0.0
2016-Apr-22 02:32N 51°54' E 004°28'0 0.0
2016-Apr-22 01:32N 51°54' E 004°28'0 0.0
2016-Apr-22 00:32N 51°54' E 004°28'0 0.0
2016-Apr-21 23:32N 51°54' E 004°28'0 0.0
2016-Apr-21 22:32N 51°54' E 004°28'0 0.0
2016-Apr-21 21:32N 51°54' E 004°28'0 0.0
2016-Apr-21 20:32N 51°54' E 004°28'0 0.0
2016-Apr-21 19:32N 51°54' E 004°28'2 2.4
2016-Apr-21 18:33N 51°54' E 004°32'13 9.3
2016-Apr-21 17:08N 51°49' E 004°51'  

Dump ship's entire track history